Accueil
METAR-TAF:

METAR-TAF

Aéroports :

Aurigny,

Aéroport d'Aurigny

latitude: 49-43N, longitude: 002-12W, altitude: 71 m

Observation

Le bulletin a été fait il y a 12 minutes, à 12:20 UTC
Vent 15 kt de sud-ouest
Température 17°C
Humidité 82%
Pression 1009 hPa
Visibilité 10 km ou plus
Quelques nuages à une hauteur de 1200 ft

METAR: EGJA 271220Z 23015KT 9999 FEW012 17/14 Q1009

Heure: 13:32 (12:32 UTC)

Prévision

Le bulletin a été fait il y a 1 heure et 32 minutes, à 11:00 UTC
Prévision valable du 27 à 12 UTC au 27 à 19 UTC
Vent 17 kt de ouest/sud-ouest
Visibilité 10 km ou plus
Nuages épars à une hauteur de 1200 ft

TAF: EGJA 271100Z 2712/2719 24017KT 9999 SCT012

Observations et prévisions météorologiques de plus de 4000 aéroports (messages METAR et TAF).

Les stations disponibles sont représentées par des disques jaunes et rouges sur la carte.

Passer la souris dessus pour voir le nom de la station.

Cliquer dessus pour voir les observations et prévisions météorologiques.

Pour changer de carte: cliquez sur les boutons verts avec une croix noire pour zoomer, sur le bouton vert avec un tiret pour effectuer un zoom arrière, ou sur les flèches vertes pour les cartes adjacentes.


METAR-TAF: